createdAt,value
2018-05-12T00:02:08.747Z,1.17
2018-05-12T00:04:36.248Z,1.30
2018-05-12T00:07:03.782Z,1.50
2018-05-12T00:09:31.278Z,1.17
2018-05-12T00:11:58.847Z,1.80
2018-05-12T00:14:26.353Z,1.17
2018-05-12T00:16:53.836Z,1.83
2018-05-12T00:19:21.345Z,1.30
2018-05-12T00:21:48.861Z,1.30
2018-05-12T00:24:16.359Z,1.40
2018-05-12T00:26:43.877Z,1.60
2018-05-12T00:29:11.475Z,2.30
2018-05-12T00:31:39.084Z,1.73
2018-05-12T00:34:06.605Z,1.30
2018-05-12T00:36:34.072Z,1.47
2018-05-12T00:39:01.587Z,1.53
2018-05-12T00:41:29.205Z,1.60
2018-05-12T00:43:56.754Z,2.07
2018-05-12T00:46:24.269Z,1.67
2018-05-12T00:48:51.742Z,1.60
2018-05-12T00:51:19.318Z,1.83
2018-05-12T00:53:46.852Z,1.50
2018-05-12T00:56:14.320Z,1.43
2018-05-12T00:58:42.435Z,1.47
2018-05-12T01:01:10.086Z,1.43
2018-05-12T01:03:37.610Z,1.30
2018-05-12T01:06:05.793Z,1.60
2018-05-12T01:08:33.348Z,1.53
2018-05-12T01:11:00.819Z,2.40
2018-05-12T01:13:28.555Z,1.90
2018-05-12T01:15:56.074Z,2.00
2018-05-12T01:18:23.654Z,1.60
2018-05-12T01:20:51.136Z,1.50
2018-05-12T01:23:18.597Z,1.90
2018-05-12T01:25:46.125Z,1.40
2018-05-12T01:28:13.614Z,1.50
2018-05-12T01:30:41.121Z,1.50
2018-05-12T01:33:08.594Z,1.73
2018-05-12T01:35:36.084Z,1.87
2018-05-12T01:38:03.889Z,2.90
2018-05-12T01:40:31.594Z,1.77
2018-05-12T01:42:59.096Z,1.80
2018-05-12T01:45:26.625Z,1.83
2018-05-12T01:47:54.149Z,1.90
2018-05-12T01:50:21.671Z,2.17
2018-05-12T01:52:49.161Z,2.17
2018-05-12T01:55:16.689Z,1.60
2018-05-12T01:57:44.172Z,1.73
2018-05-12T02:00:11.853Z,2.13
2018-05-12T02:02:39.353Z,2.47
2018-05-12T02:05:06.902Z,1.77
2018-05-12T02:07:34.398Z,1.77
2018-05-12T02:10:01.895Z,1.93
2018-05-12T02:12:29.445Z,2.00
2018-05-12T02:14:56.927Z,2.07
2018-05-12T02:17:24.446Z,1.77
2018-05-12T02:19:51.952Z,2.13
2018-05-12T02:22:19.461Z,1.63
2018-05-12T02:24:47.027Z,2.00
2018-05-12T02:27:14.689Z,1.80
2018-05-12T02:29:42.268Z,2.27
2018-05-12T02:32:09.769Z,2.30
2018-05-12T02:34:37.328Z,2.43
2018-05-12T02:37:04.819Z,2.17
2018-05-12T02:39:32.490Z,2.13
2018-05-12T02:42:00.001Z,2.67
2018-05-12T02:44:27.479Z,2.10
2018-05-12T02:46:55.004Z,2.20
2018-05-12T02:49:22.500Z,2.20
2018-05-12T02:51:49.995Z,2.53
2018-05-12T02:54:17.532Z,2.30
2018-05-12T02:56:45.035Z,2.57
2018-05-12T02:59:12.560Z,2.20
2018-05-12T03:01:40.070Z,2.00
2018-05-12T03:04:07.573Z,3.17
2018-05-12T03:06:35.103Z,2.17
2018-05-12T03:09:02.608Z,2.13
2018-05-12T03:11:30.182Z,2.30
2018-05-12T03:13:57.792Z,2.57
2018-05-12T03:16:25.326Z,2.17
2018-05-12T03:18:52.825Z,2.30
2018-05-12T03:21:20.318Z,2.50
2018-05-12T03:23:47.820Z,1.87
2018-05-12T03:26:15.286Z,2.80
2018-05-12T03:28:42.799Z,2.83
2018-05-12T03:31:10.292Z,2.20
2018-05-12T03:33:37.797Z,3.07
2018-05-12T03:36:05.280Z,2.40
2018-05-12T03:38:32.800Z,2.33
2018-05-12T03:41:00.270Z,2.20
2018-05-12T03:43:27.804Z,2.10
2018-05-12T03:45:55.313Z,2.10
2018-05-12T03:48:22.789Z,2.30
2018-05-12T03:50:50.315Z,2.80
2018-05-12T03:53:17.836Z,2.93
2018-05-12T03:55:45.334Z,2.73
2018-05-12T03:58:12.832Z,2.30
2018-05-12T04:00:40.796Z,2.47
2018-05-12T04:03:08.288Z,2.10
2018-05-12T04:05:47.833Z,2.90
2018-05-12T04:08:29.534Z,2.83
2018-05-12T04:11:08.833Z,2.80
2018-05-12T04:13:36.622Z,2.87
2018-05-12T04:16:04.135Z,2.70
2018-05-12T04:18:31.664Z,3.07
2018-05-12T04:20:59.267Z,3.00
2018-05-12T04:23:26.731Z,3.33
2018-05-12T04:25:54.240Z,2.57
2018-05-12T04:28:21.779Z,2.83
2018-05-12T04:30:49.257Z,2.70
2018-05-12T04:33:17.128Z,2.50
2018-05-12T04:35:44.627Z,2.90
2018-05-12T04:38:12.214Z,2.53
2018-05-12T04:40:39.862Z,3.00
2018-05-12T04:43:07.465Z,3.00
2018-05-12T04:45:34.953Z,2.90
2018-05-12T04:48:02.476Z,3.47
2018-05-12T04:50:29.975Z,3.53
2018-05-12T04:52:57.477Z,3.37
2018-05-12T04:55:24.989Z,3.27
2018-05-12T04:57:52.571Z,4.17
2018-05-12T05:00:20.273Z,3.87
2018-05-12T05:02:47.753Z,4.27
2018-05-12T05:05:15.258Z,3.33
2018-05-12T05:07:42.814Z,3.43
2018-05-12T05:10:10.355Z,3.87
2018-05-12T05:12:37.871Z,4.17
2018-05-12T05:15:05.365Z,4.03
2018-05-12T05:17:32.858Z,3.77
2018-05-12T05:20:00.438Z,3.40
2018-05-12T05:22:27.966Z,3.33
2018-05-12T05:24:55.626Z,3.53
2018-05-12T05:27:23.143Z,3.87
2018-05-12T05:29:50.661Z,4.37
2018-05-12T05:32:18.156Z,3.93
2018-05-12T05:34:45.753Z,4.47
2018-05-12T05:37:13.238Z,3.90
2018-05-12T05:39:40.743Z,3.93
2018-05-12T05:42:08.591Z,4.90
2018-05-12T05:44:36.081Z,3.93
2018-05-12T05:47:03.571Z,3.60
2018-05-12T05:49:31.112Z,4.07
2018-05-12T05:51:58.876Z,3.60
2018-05-12T05:54:26.343Z,3.80
2018-05-12T05:56:53.949Z,3.67
2018-05-12T05:59:21.428Z,3.83
2018-05-12T06:01:49.041Z,3.90
2018-05-12T06:04:16.657Z,4.13
2018-05-12T06:06:44.213Z,4.20
2018-05-12T06:09:11.684Z,3.77
2018-05-12T06:11:39.163Z,4.23
2018-05-12T06:14:06.718Z,3.40
2018-05-12T06:16:34.223Z,3.90
2018-05-12T06:19:01.774Z,4.70
2018-05-12T06:21:29.295Z,4.40
2018-05-12T06:23:57.073Z,4.37
2018-05-12T06:26:24.567Z,4.17
2018-05-12T06:28:52.098Z,3.97
2018-05-12T06:31:19.785Z,4.07
2018-05-12T06:33:47.292Z,4.00
2018-05-12T06:36:15.666Z,4.30
2018-05-12T06:38:43.139Z,3.90
2018-05-12T06:41:10.661Z,4.50
2018-05-12T06:43:38.152Z,3.37
2018-05-12T06:46:05.619Z,3.67
2018-05-12T06:48:33.122Z,3.83
2018-05-12T06:51:00.612Z,3.83
2018-05-12T06:53:28.133Z,3.83
2018-05-12T06:55:55.631Z,3.67
2018-05-12T06:58:23.143Z,3.40
2018-05-12T07:00:50.679Z,3.90
2018-05-12T07:03:18.171Z,4.07
2018-05-12T07:05:45.785Z,3.97
2018-05-12T07:08:13.336Z,3.80
2018-05-12T07:10:40.861Z,3.87
2018-05-12T07:13:08.353Z,3.60
2018-05-12T07:15:35.853Z,3.90
2018-05-12T07:18:03.327Z,3.60
2018-05-12T07:20:30.883Z,3.70
2018-05-12T07:22:58.384Z,3.87
2018-05-12T07:25:25.900Z,4.20
2018-05-12T07:27:53.458Z,3.43
2018-05-12T07:30:20.997Z,3.77
2018-05-12T07:32:48.519Z,3.93
2018-05-12T07:35:16.021Z,3.97
2018-05-12T07:37:43.521Z,3.93
2018-05-12T07:40:11.146Z,4.67
2018-05-12T07:42:38.657Z,3.90
2018-05-12T07:45:06.133Z,4.10
2018-05-12T07:47:33.659Z,3.83
2018-05-12T07:50:01.305Z,3.93
2018-05-12T07:52:28.814Z,4.33
2018-05-12T07:54:56.333Z,3.97
2018-05-12T07:57:23.970Z,4.07
2018-05-12T07:59:51.488Z,4.03
2018-05-12T08:02:18.989Z,4.30
2018-05-12T08:04:46.547Z,3.70
2018-05-12T08:07:14.039Z,3.80
2018-05-12T08:09:41.543Z,3.70
2018-05-12T08:12:09.089Z,3.23
2018-05-12T08:14:36.627Z,2.90
2018-05-12T08:17:04.177Z,3.83
2018-05-12T08:19:31.649Z,3.63
2018-05-12T08:21:59.145Z,2.67
2018-05-12T08:24:26.630Z,3.37
2018-05-12T08:26:54.180Z,3.00
2018-05-12T08:29:21.775Z,3.00
2018-05-12T08:31:49.268Z,2.93
2018-05-12T08:34:16.777Z,2.45
2018-05-12T08:36:44.273Z,2.57
2018-05-12T08:39:11.774Z,2.40
2018-05-12T08:41:39.783Z,2.10
2018-05-12T08:44:07.262Z,2.10
2018-05-12T08:46:34.770Z,2.12
2018-05-12T08:49:02.302Z,2.17
2018-05-12T08:51:29.876Z,1.90
2018-05-12T08:53:57.349Z,2.22
2018-05-12T08:56:24.870Z,2.00
2018-05-12T08:58:52.361Z,2.10
2018-05-12T09:01:19.948Z,1.70
2018-05-12T09:03:47.419Z,1.62
2018-05-12T09:06:14.932Z,2.00
2018-05-12T09:08:42.419Z,2.05
2018-05-12T09:11:09.958Z,2.45
2018-05-12T09:13:37.464Z,1.60
2018-05-12T09:16:04.961Z,1.85
2018-05-12T09:18:32.456Z,1.67
2018-05-12T09:20:59.972Z,1.85
2018-05-12T09:23:27.449Z,2.20
2018-05-12T09:25:54.973Z,2.03
2018-05-12T09:28:22.550Z,2.05
2018-05-12T09:30:50.069Z,2.30
2018-05-12T09:33:17.912Z,1.83
2018-05-12T09:35:45.563Z,2.37
2018-05-12T09:38:13.055Z,2.03
2018-05-12T09:40:40.561Z,2.22
2018-05-12T09:43:08.144Z,2.12
2018-05-12T09:45:35.738Z,2.12
2018-05-12T09:48:03.242Z,2.35
2018-05-12T09:50:30.719Z,1.80
2018-05-12T09:52:58.244Z,2.22
2018-05-12T09:55:25.708Z,2.50
2018-05-12T09:57:53.219Z,1.98
2018-05-12T10:00:25.522Z,2.28
2018-05-12T10:02:53.045Z,2.47
2018-05-12T10:05:20.537Z,1.92
2018-05-12T10:07:48.019Z,2.28
2018-05-12T10:10:15.580Z,2.55
2018-05-12T10:12:43.229Z,1.85
2018-05-12T10:15:10.669Z,3.40
2018-05-12T10:17:38.164Z,1.98
2018-05-12T10:20:05.680Z,1.95
2018-05-12T10:22:33.201Z,2.90
2018-05-12T10:25:00.711Z,2.10
2018-05-12T10:27:28.276Z,2.10
2018-05-12T10:29:55.811Z,2.08
2018-05-12T10:32:23.318Z,1.75
2018-05-12T10:34:50.825Z,2.25
2018-05-12T10:37:18.371Z,1.98
2018-05-12T10:39:45.862Z,1.67
2018-05-12T10:42:13.389Z,1.92
2018-05-12T10:44:40.891Z,1.85
2018-05-12T10:47:08.455Z,1.52
2018-05-12T10:49:35.955Z,1.40
2018-05-12T10:52:03.554Z,1.83
2018-05-12T10:54:31.033Z,1.65
2018-05-12T10:56:58.549Z,1.40
2018-05-12T10:59:26.024Z,1.42
2018-05-12T11:01:53.689Z,1.55
2018-05-12T11:04:21.248Z,1.73
2018-05-12T11:06:48.752Z,1.83
2018-05-12T11:09:16.326Z,1.60
2018-05-12T11:11:43.896Z,2.08
2018-05-12T11:14:11.376Z,1.58
2018-05-12T11:16:38.913Z,1.40
2018-05-12T11:19:06.418Z,2.25
2018-05-12T11:21:33.960Z,1.50
2018-05-12T11:24:01.404Z,1.65
2018-05-12T11:26:29.477Z,1.83
2018-05-12T11:28:57.007Z,1.70
2018-05-12T11:31:24.534Z,1.40
2018-05-12T11:33:52.172Z,1.35
2018-05-12T11:36:19.826Z,1.30
2018-05-12T11:38:47.409Z,1.15
2018-05-12T11:41:14.836Z,0.93
2018-05-12T11:43:42.441Z,1.10
2018-05-12T11:46:09.925Z,1.42
2018-05-12T11:48:37.737Z,1.27
2018-05-12T11:51:05.204Z,1.42
2018-05-12T11:53:32.694Z,1.30
2018-05-12T11:56:00.217Z,1.10
2018-05-12T11:58:28.004Z,1.92
2018-05-12T12:00:55.469Z,1.33
2018-05-12T12:03:23.402Z,0.90
2018-05-12T12:05:50.908Z,1.10
2018-05-12T12:08:18.432Z,0.98
2018-05-12T12:10:45.951Z,1.02
2018-05-12T12:13:13.482Z,0.95
2018-05-12T12:15:41.037Z,1.20
2018-05-12T12:18:08.657Z,1.10
2018-05-12T12:20:36.138Z,1.10
2018-05-12T12:23:03.719Z,1.10
2018-05-12T12:25:31.954Z,1.30
2018-05-12T12:27:59.454Z,1.10
2018-05-12T12:30:26.955Z,1.08
2018-05-12T12:32:54.438Z,0.88
2018-05-12T12:35:22.041Z,0.98
2018-05-12T12:37:49.536Z,0.90
2018-05-12T12:40:17.029Z,1.10
2018-05-12T12:42:44.580Z,1.08
2018-05-12T12:45:12.059Z,1.10
2018-05-12T12:47:39.576Z,1.20
2018-05-12T12:50:07.071Z,1.20
2018-05-12T12:52:34.578Z,1.00
2018-05-12T12:55:02.054Z,1.30
2018-05-12T12:57:29.575Z,1.17
2018-05-12T12:59:57.114Z,1.15
2018-05-12T13:02:24.606Z,1.10
2018-05-12T13:04:52.161Z,1.17
2018-05-12T13:07:19.654Z,1.15
2018-05-12T13:09:47.172Z,1.17
2018-05-12T13:12:14.661Z,1.12
2018-05-12T13:14:42.177Z,1.20
2018-05-12T13:17:09.646Z,1.30
2018-05-12T13:19:37.160Z,1.35
2018-05-12T13:22:04.667Z,1.60
2018-05-12T13:24:32.150Z,1.52
2018-05-12T13:26:59.651Z,1.50
2018-05-12T13:29:27.132Z,1.60
2018-05-12T13:31:54.662Z,1.37
2018-05-12T13:34:22.184Z,1.20
2018-05-12T13:36:49.672Z,1.20
2018-05-12T13:39:17.686Z,1.17
2018-05-12T13:41:45.213Z,1.80
2018-05-12T13:44:12.725Z,1.35
2018-05-12T13:46:40.221Z,1.20
2018-05-12T13:49:07.783Z,1.30
2018-05-12T13:51:35.314Z,1.20
2018-05-12T13:54:02.848Z,1.10
2018-05-12T13:56:30.325Z,1.20
2018-05-12T13:58:57.897Z,1.10
2018-05-12T14:01:25.438Z,1.20
2018-05-12T14:03:52.921Z,1.10
2018-05-12T14:06:20.439Z,1.10
2018-05-12T14:08:47.955Z,1.80
2018-05-12T14:11:15.463Z,1.23
2018-05-12T14:13:42.979Z,1.30
2018-05-12T14:16:10.568Z,1.40
2018-05-12T14:18:37.992Z,1.17
2018-05-12T14:21:05.504Z,1.30
2018-05-12T14:23:33.019Z,1.37
2018-05-12T14:26:00.499Z,1.23
2018-05-12T14:28:28.074Z,1.35
2018-05-12T14:30:55.584Z,1.42
2018-05-12T14:33:23.538Z,1.20
2018-05-12T14:35:51.030Z,1.20
2018-05-12T14:38:18.503Z,1.00
2018-05-12T14:40:46.029Z,1.12
2018-05-12T14:43:13.555Z,1.25
2018-05-12T14:45:41.054Z,1.20
2018-05-12T14:48:08.529Z,1.30
2018-05-12T14:50:36.045Z,1.60
2018-05-12T14:53:03.544Z,1.12
2018-05-12T14:55:31.059Z,1.12
2018-05-12T14:57:58.555Z,1.33
2018-05-12T15:00:26.054Z,1.55
2018-05-12T15:02:53.736Z,1.05
2018-05-12T15:05:21.209Z,1.35
2018-05-12T15:07:49.194Z,1.30
2018-05-12T15:10:16.907Z,1.23
2018-05-12T15:12:44.393Z,1.67
2018-05-12T15:15:12.012Z,1.30
2018-05-12T15:17:39.602Z,1.08
2018-05-12T15:20:07.090Z,1.30
2018-05-12T15:22:34.633Z,1.50
2018-05-12T15:25:02.160Z,1.30
2018-05-12T15:27:29.665Z,1.30
2018-05-12T15:29:57.152Z,1.20
2018-05-12T15:32:24.687Z,1.52
2018-05-12T15:34:52.157Z,1.05
2018-05-12T15:37:19.678Z,1.37
2018-05-12T15:39:47.176Z,1.40
2018-05-12T15:42:14.681Z,1.40
2018-05-12T15:44:42.186Z,1.05
2018-05-12T15:47:09.723Z,1.23
2018-05-12T15:49:37.233Z,1.40
2018-05-12T15:52:04.705Z,1.37
2018-05-12T15:54:32.224Z,1.30
2018-05-12T15:56:59.710Z,1.37
2018-05-12T15:59:27.253Z,1.12
2018-05-12T16:01:54.728Z,1.20
2018-05-12T16:04:22.237Z,1.20
2018-05-12T16:06:49.793Z,1.20
2018-05-12T16:09:17.318Z,1.15
2018-05-12T16:11:44.812Z,1.40
2018-05-12T16:14:12.309Z,1.10
2018-05-12T16:16:39.901Z,1.00
2018-05-12T16:19:08.033Z,1.20
2018-05-12T16:21:35.554Z,1.25
2018-05-12T16:24:03.060Z,1.27
2018-05-12T16:26:30.801Z,1.60
2018-05-12T16:28:58.301Z,1.50
2018-05-12T16:31:25.868Z,1.17
2018-05-12T16:33:53.399Z,1.37
2018-05-12T16:36:20.893Z,1.20
2018-05-12T16:38:48.403Z,1.42
2018-05-12T16:41:15.883Z,1.33
2018-05-12T16:43:43.854Z,1.10
2018-05-12T16:46:11.369Z,1.20
2018-05-12T16:48:38.945Z,1.30
2018-05-12T16:51:06.635Z,1.20
2018-05-12T16:53:34.083Z,1.30
2018-05-12T16:56:01.859Z,1.25
2018-05-12T16:58:29.343Z,1.00
2018-05-12T17:00:57.341Z,1.15
2018-05-12T17:03:24.832Z,1.25
2018-05-12T17:05:52.320Z,1.40
2018-05-12T17:08:19.890Z,1.10
2018-05-12T17:10:47.407Z,1.40
2018-05-12T17:13:15.005Z,1.12
2018-05-12T17:15:42.446Z,1.10
2018-05-12T17:18:09.976Z,1.20
2018-05-12T17:20:37.478Z,1.10
2018-05-12T17:23:04.978Z,1.30
2018-05-12T17:25:32.512Z,1.50
2018-05-12T17:28:00.118Z,1.20
2018-05-12T17:30:27.661Z,1.10
2018-05-12T17:32:55.147Z,1.15
2018-05-12T17:35:22.655Z,1.40
2018-05-12T17:37:50.264Z,1.20
2018-05-12T17:40:17.716Z,1.45
2018-05-12T17:42:45.197Z,1.37
2018-05-12T17:45:12.703Z,1.30
2018-05-12T17:47:40.209Z,1.42
2018-05-12T17:50:07.793Z,1.33
2018-05-12T17:52:35.238Z,1.30
2018-05-12T17:55:02.707Z,1.70
2018-05-12T17:57:30.227Z,1.20
2018-05-12T17:59:57.708Z,1.45
2018-05-12T18:02:25.213Z,1.40
2018-05-12T18:04:52.686Z,1.42
2018-05-12T18:07:20.295Z,1.20
2018-05-12T18:09:48.006Z,1.40
2018-05-12T18:12:15.508Z,1.27
2018-05-12T18:14:43.020Z,1.20
2018-05-12T18:17:10.508Z,1.50
2018-05-12T18:19:38.043Z,1.35
2018-05-12T18:22:05.551Z,1.30
2018-05-12T18:24:33.128Z,1.08
2018-05-12T18:27:00.605Z,1.20
2018-05-12T18:29:28.107Z,1.45
2018-05-12T18:31:55.716Z,1.23
2018-05-12T18:34:23.138Z,1.30
2018-05-12T18:36:50.641Z,1.10
2018-05-12T18:39:18.117Z,1.30
2018-05-12T18:41:45.639Z,1.15
2018-05-12T18:44:13.169Z,1.10
2018-05-12T18:46:40.669Z,1.50
2018-05-12T18:49:08.296Z,1.40
2018-05-12T18:51:35.788Z,1.25
2018-05-12T18:54:03.309Z,1.20
2018-05-12T18:56:30.785Z,1.23
2018-05-12T18:58:58.372Z,1.17
2018-05-12T19:01:26.025Z,1.48
2018-05-12T19:03:53.556Z,1.20
2018-05-12T19:06:21.097Z,1.50
2018-05-12T19:08:48.582Z,1.35
2018-05-12T19:11:16.107Z,2.10
2018-05-12T19:13:43.624Z,1.60
2018-05-12T19:16:11.128Z,1.70
2018-05-12T19:18:38.664Z,1.58
2018-05-12T19:21:06.155Z,1.40
2018-05-12T19:23:33.706Z,1.40
2018-05-12T19:26:01.228Z,1.60
2018-05-12T19:28:28.757Z,1.65
2018-05-12T19:30:56.230Z,1.30
2018-05-12T19:33:23.799Z,1.83
2018-05-12T19:35:51.265Z,1.55
2018-05-12T19:38:18.799Z,1.92
2018-05-12T19:40:46.284Z,1.50
2018-05-12T19:43:13.857Z,1.73
2018-05-12T19:45:43.138Z,1.73
2018-05-12T19:48:10.630Z,1.80
2018-05-12T19:50:38.583Z,2.08
2018-05-12T19:53:06.121Z,2.53
2018-05-12T19:55:33.647Z,1.92
2018-05-12T19:58:01.271Z,1.90
2018-05-12T20:00:28.801Z,1.80
2018-05-12T20:02:56.288Z,1.98
2018-05-12T20:05:23.806Z,2.10
2018-05-12T20:07:51.716Z,1.70
2018-05-12T20:10:19.193Z,1.75
2018-05-12T20:12:46.711Z,1.85
2018-05-12T20:15:14.219Z,1.92
2018-05-12T20:17:41.854Z,2.30
2018-05-12T20:20:09.334Z,2.00
2018-05-12T20:22:36.806Z,1.83
2018-05-12T20:25:04.326Z,2.45
2018-05-12T20:27:31.842Z,2.30
2018-05-12T20:29:59.826Z,2.33
2018-05-12T20:32:27.372Z,2.05
2018-05-12T20:34:55.359Z,2.37
2018-05-12T20:37:22.937Z,2.40
2018-05-12T20:39:50.362Z,2.37
2018-05-12T20:42:17.876Z,2.28
2018-05-12T20:44:45.378Z,2.35
2018-05-12T20:47:12.869Z,2.20
2018-05-12T20:49:40.399Z,2.70
2018-05-12T20:52:07.895Z,2.83
2018-05-12T20:54:35.417Z,2.00
2018-05-12T20:57:02.942Z,2.90
2018-05-12T20:59:30.413Z,2.62
2018-05-12T21:01:57.955Z,2.55
2018-05-12T21:04:25.522Z,2.58
2018-05-12T21:06:53.051Z,2.58
2018-05-12T21:09:20.533Z,2.30
2018-05-12T21:11:48.023Z,2.70
2018-05-12T21:14:15.567Z,2.72
2018-05-12T21:16:43.074Z,2.65
2018-05-12T21:19:10.601Z,2.65
2018-05-12T21:21:38.077Z,3.28
2018-05-12T21:24:05.579Z,2.87
2018-05-12T21:26:33.078Z,3.08
2018-05-12T21:29:00.554Z,3.53
2018-05-12T21:31:28.056Z,2.90
2018-05-12T21:33:55.621Z,3.53
2018-05-12T21:36:23.148Z,2.45
2018-05-12T21:38:50.626Z,3.17
2018-05-12T21:41:18.790Z,3.37
2018-05-12T21:43:46.313Z,2.80
2018-05-12T21:46:14.031Z,3.12
2018-05-12T21:48:41.556Z,2.90
2018-05-12T21:51:09.104Z,3.60
2018-05-12T21:53:36.559Z,2.80
2018-05-12T21:56:04.089Z,3.60
2018-05-12T21:58:31.572Z,4.32
2018-05-12T22:00:59.094Z,3.22
2018-05-12T22:03:26.614Z,3.75
2018-05-12T22:05:54.134Z,3.45
2018-05-12T22:08:21.663Z,2.87
2018-05-12T22:10:49.178Z,3.67
2018-05-12T22:13:16.709Z,3.62
2018-05-12T22:15:44.196Z,4.00
2018-05-12T22:18:11.695Z,3.67
2018-05-12T22:20:39.165Z,3.62
2018-05-12T22:23:06.772Z,3.80
2018-05-12T22:25:34.273Z,3.83
2018-05-12T22:28:01.767Z,4.53
2018-05-12T22:30:29.839Z,4.28
2018-05-12T22:32:57.314Z,3.80
2018-05-12T22:35:24.796Z,3.78
2018-05-12T22:37:52.309Z,4.35
2018-05-12T22:40:19.819Z,4.12
2018-05-12T22:42:47.289Z,4.43
2018-05-12T22:45:14.777Z,4.30
2018-05-12T22:47:42.289Z,5.47
2018-05-12T22:50:09.918Z,4.28
2018-05-12T22:52:37.397Z,3.97
2018-05-12T22:55:04.880Z,4.22
2018-05-12T22:57:32.405Z,4.43
2018-05-12T22:59:59.904Z,4.55
2018-05-12T23:02:27.384Z,4.70
2018-05-12T23:04:54.886Z,5.40
2018-05-12T23:07:22.355Z,4.95
2018-05-12T23:09:49.891Z,5.97
2018-05-12T23:12:17.400Z,4.80
2018-05-12T23:14:44.888Z,5.17
2018-05-12T23:17:12.400Z,6.10
2018-05-12T23:19:39.978Z,4.07
2018-05-12T23:22:07.470Z,6.00
2018-05-12T23:24:34.947Z,4.53
2018-05-12T23:27:02.416Z,4.85
2018-05-12T23:29:30.015Z,5.03
2018-05-12T23:31:57.494Z,6.12
2018-05-12T23:34:24.994Z,4.07
2018-05-12T23:36:52.465Z,5.90
2018-05-12T23:39:19.975Z,6.13
2018-05-12T23:41:47.488Z,4.57
2018-05-12T23:44:14.962Z,4.60
2018-05-12T23:46:42.478Z,5.40
2018-05-12T23:49:09.956Z,6.03
2018-05-12T23:51:37.588Z,5.70
2018-05-12T23:54:05.073Z,5.67
2018-05-12T23:56:32.561Z,4.03
2018-05-12T23:59:00.079Z,5.67
